createdAt,value
2019-01-25T00:01:07.767Z,40.50
2019-01-25T00:02:13.127Z,47.00
2019-01-25T00:03:22.530Z,36.00
2019-01-25T00:04:30.407Z,35.50
2019-01-25T00:05:32.435Z,40.50
2019-01-25T00:06:36.376Z,47.50
2019-01-25T00:07:39.376Z,37.00
2019-01-25T00:08:45.841Z,40.50
2019-01-25T00:09:48.910Z,40.00
2019-01-25T00:10:51.843Z,35.00
2019-01-25T00:11:55.052Z,44.00
2019-01-25T00:13:01.104Z,25.50
2019-01-25T00:14:04.298Z,38.50
2019-01-25T00:15:09.247Z,40.00
2019-01-25T00:16:12.098Z,46.00
2019-01-25T00:17:19.488Z,36.00
2019-01-25T00:18:22.460Z,48.00
2019-01-25T00:19:26.080Z,49.00
2019-01-25T00:20:28.983Z,35.50
2019-01-25T00:21:31.876Z,35.00
2019-01-25T00:22:34.818Z,40.50
2019-01-25T00:23:39.128Z,45.00
2019-01-25T00:24:42.026Z,33.00
2019-01-25T00:25:45.013Z,43.00
2019-01-25T00:26:47.899Z,40.50
2019-01-25T00:27:50.888Z,43.00
2019-01-25T00:28:56.583Z,46.00
2019-01-25T00:30:00.453Z,42.00
2019-01-25T00:31:03.674Z,31.00
2019-01-25T00:32:07.866Z,32.50
2019-01-25T00:33:11.757Z,36.00
2019-01-25T00:34:15.128Z,37.50
2019-01-25T00:35:18.257Z,40.00
2019-01-25T00:36:21.527Z,35.50
2019-01-25T00:37:24.806Z,45.00
2019-01-25T00:38:28.149Z,40.00
2019-01-25T00:39:33.095Z,27.50
2019-01-25T00:40:35.678Z,46.00
2019-01-25T00:41:39.045Z,30.00
2019-01-25T00:42:42.024Z,32.50
2019-01-25T00:43:45.228Z,32.50
2019-01-25T00:44:48.329Z,34.50
2019-01-25T00:45:51.373Z,40.00
2019-01-25T00:46:54.276Z,33.50
2019-01-25T00:47:57.846Z,26.50
2019-01-25T00:49:01.028Z,34.50
2019-01-25T00:50:04.435Z,28.00
2019-01-25T00:51:07.420Z,29.00
2019-01-25T00:52:10.729Z,37.00
2019-01-25T00:53:13.700Z,28.50
2019-01-25T00:54:17.110Z,37.50
2019-01-25T00:55:20.329Z,37.00
2019-01-25T00:56:23.791Z,40.50
2019-01-25T00:57:26.801Z,28.00
2019-01-25T00:58:29.807Z,38.00
2019-01-25T00:59:35.137Z,34.00
2019-01-25T01:00:38.482Z,41.50
2019-01-25T01:01:41.939Z,24.50
2019-01-25T01:02:45.574Z,39.50
2019-01-25T01:03:48.983Z,32.50
2019-01-25T01:04:52.465Z,31.50
2019-01-25T01:05:55.412Z,29.00
2019-01-25T01:06:58.495Z,30.50
2019-01-25T01:08:01.838Z,37.50
2019-01-25T01:09:05.367Z,35.00
2019-01-25T01:10:14.007Z,39.50
2019-01-25T01:11:12.896Z,31.00
2019-01-25T01:12:15.900Z,31.00
2019-01-25T01:13:18.822Z,30.50
2019-01-25T01:14:22.041Z,29.50
2019-01-25T01:15:24.933Z,25.50
2019-01-25T01:16:27.870Z,35.00
2019-01-25T01:17:30.865Z,38.00
2019-01-25T01:18:35.472Z,27.00
2019-01-25T01:19:38.404Z,26.50
2019-01-25T01:20:42.083Z,33.50
2019-01-25T01:21:46.666Z,43.00
2019-01-25T01:22:49.763Z,32.50
2019-01-25T01:23:53.118Z,38.00
2019-01-25T01:24:56.052Z,23.00
2019-01-25T01:25:58.970Z,23.00
2019-01-25T01:27:02.225Z,29.00
2019-01-25T01:28:05.196Z,38.00
2019-01-25T01:29:10.105Z,27.50
2019-01-25T01:30:12.658Z,34.00
2019-01-25T01:31:15.563Z,29.50
2019-01-25T01:32:18.500Z,31.00
2019-01-25T01:33:21.784Z,32.00
2019-01-25T01:34:24.780Z,22.50
2019-01-25T01:35:27.709Z,30.00
2019-01-25T01:36:30.625Z,31.00
2019-01-25T01:37:52.832Z,24.50
2019-01-25T01:38:56.944Z,29.50
2019-01-25T01:40:01.176Z,25.50
2019-01-25T01:41:04.238Z,30.50
2019-01-25T01:42:07.625Z,41.00
2019-01-25T01:43:10.541Z,33.00
2019-01-25T01:44:13.974Z,21.50
2019-01-25T01:45:17.343Z,29.00
2019-01-25T01:46:20.271Z,23.50
2019-01-25T01:47:23.191Z,39.50
2019-01-25T01:48:26.151Z,26.00
2019-01-25T01:49:29.106Z,22.00
2019-01-25T01:50:32.195Z,28.50
2019-01-25T01:51:35.908Z,30.50
2019-01-25T01:52:38.814Z,36.50
2019-01-25T01:53:42.907Z,28.50
2019-01-25T01:54:45.894Z,29.00
2019-01-25T01:55:48.920Z,18.00
2019-01-25T01:56:52.292Z,39.00
2019-01-25T01:57:55.635Z,29.00
2019-01-25T01:58:58.664Z,37.50
2019-01-25T02:00:03.089Z,31.50
2019-01-25T02:01:06.262Z,32.00
2019-01-25T02:02:09.236Z,28.50
2019-01-25T02:03:12.130Z,32.50
2019-01-25T02:04:15.526Z,36.50
2019-01-25T02:05:18.752Z,29.00
2019-01-25T02:06:21.824Z,29.00
2019-01-25T02:07:24.830Z,31.50
2019-01-25T02:08:27.789Z,26.50
2019-01-25T02:09:30.790Z,28.00
2019-01-25T02:10:34.173Z,27.00
2019-01-25T02:11:37.547Z,41.50
2019-01-25T02:12:42.918Z,34.50
2019-01-25T02:13:47.096Z,36.00
2019-01-25T02:14:50.039Z,27.00
2019-01-25T02:15:54.845Z,26.50
2019-01-25T02:16:58.192Z,29.00
2019-01-25T02:18:01.188Z,23.50
2019-01-25T02:19:04.125Z,30.50
2019-01-25T02:20:10.304Z,25.00
2019-01-25T02:21:13.232Z,31.00
2019-01-25T02:22:16.774Z,32.50
2019-01-25T02:23:23.254Z,26.50
2019-01-25T02:24:26.199Z,36.50
2019-01-25T02:25:31.935Z,22.50
2019-01-25T02:26:35.132Z,32.50
2019-01-25T02:27:39.322Z,23.50
2019-01-25T02:28:42.520Z,28.50
2019-01-25T02:29:45.846Z,28.50
2019-01-25T02:30:48.765Z,35.50
2019-01-25T02:31:51.708Z,27.00
2019-01-25T02:32:55.295Z,23.50
2019-01-25T02:34:00.620Z,32.50
2019-01-25T02:35:06.087Z,26.50
2019-01-25T02:36:09.431Z,31.50
2019-01-25T02:37:12.331Z,22.50
2019-01-25T02:38:15.297Z,24.50
2019-01-25T02:39:18.230Z,36.00
2019-01-25T02:40:21.148Z,31.50
2019-01-25T02:41:24.056Z,23.00
2019-01-25T02:42:27.390Z,28.00
2019-01-25T02:43:31.795Z,28.00
2019-01-25T02:44:34.682Z,26.50
2019-01-25T02:45:37.616Z,31.50
2019-01-25T02:46:40.627Z,23.50
2019-01-25T02:47:43.558Z,32.00
2019-01-25T02:48:47.010Z,25.50
2019-01-25T02:49:50.418Z,30.00
2019-01-25T02:50:53.322Z,35.00
2019-01-25T02:51:56.494Z,24.50
2019-01-25T02:53:03.819Z,26.50
2019-01-25T02:54:04.066Z,25.00
2019-01-25T02:55:07.413Z,27.00
2019-01-25T02:56:10.335Z,20.00
2019-01-25T02:57:14.539Z,23.00
2019-01-25T02:58:17.470Z,23.50
2019-01-25T02:59:25.433Z,26.50
2019-01-25T03:00:28.356Z,33.50
2019-01-25T03:01:33.001Z,26.00
2019-01-25T03:02:35.977Z,25.50
2019-01-25T03:03:39.518Z,27.00
2019-01-25T03:04:42.447Z,26.50
2019-01-25T03:05:45.390Z,30.00
2019-01-25T03:06:48.303Z,36.00
2019-01-25T03:07:51.755Z,29.00
2019-01-25T03:08:54.694Z,25.50
2019-01-25T03:09:57.586Z,37.50
2019-01-25T03:11:00.553Z,27.00
2019-01-25T03:12:03.545Z,29.50
2019-01-25T03:13:06.987Z,35.50
2019-01-25T03:14:10.398Z,31.00
2019-01-25T03:15:13.396Z,27.00
2019-01-25T03:16:16.398Z,32.50
2019-01-25T03:17:19.346Z,37.00
2019-01-25T03:18:22.848Z,25.50
2019-01-25T03:19:25.808Z,35.00
2019-01-25T03:20:29.292Z,24.00
2019-01-25T03:21:41.957Z,29.50
2019-01-25T03:22:44.968Z,28.00
2019-01-25T03:23:47.853Z,27.50
2019-01-25T03:24:50.902Z,30.00
2019-01-25T03:25:53.844Z,23.00
2019-01-25T03:26:58.724Z,33.00
2019-01-25T03:28:02.135Z,26.50
2019-01-25T03:29:05.116Z,26.00
2019-01-25T03:30:08.051Z,20.50
2019-01-25T03:31:10.944Z,34.00
2019-01-25T03:32:13.923Z,31.00
2019-01-25T03:33:17.283Z,27.00
2019-01-25T03:34:20.281Z,31.00
2019-01-25T03:35:23.235Z,38.50
2019-01-25T03:36:26.126Z,26.00
2019-01-25T03:37:29.035Z,24.50
2019-01-25T03:38:31.976Z,33.00
2019-01-25T03:39:35.450Z,28.50
2019-01-25T03:40:38.448Z,25.00
2019-01-25T03:41:41.548Z,32.50
2019-01-25T03:42:44.482Z,28.00
2019-01-25T03:43:50.605Z,34.00
2019-01-25T03:44:57.071Z,24.50
2019-01-25T03:46:04.002Z,41.50
2019-01-25T03:47:07.315Z,33.50
2019-01-25T03:48:13.029Z,23.00
2019-01-25T03:49:16.039Z,28.00
2019-01-25T03:50:19.115Z,26.00
2019-01-25T03:51:22.021Z,26.50
2019-01-25T03:52:25.770Z,27.00
2019-01-25T03:53:29.639Z,30.50
2019-01-25T03:54:32.561Z,31.50
2019-01-25T03:55:35.679Z,22.00
2019-01-25T03:56:38.732Z,24.00
2019-01-25T03:57:42.413Z,23.50
2019-01-25T03:58:46.625Z,25.50
2019-01-25T03:59:51.823Z,28.00
2019-01-25T04:00:55.058Z,25.50
2019-01-25T04:02:00.438Z,23.00
2019-01-25T04:03:03.780Z,32.50
2019-01-25T04:04:07.603Z,31.00
2019-01-25T04:05:11.174Z,31.00
2019-01-25T04:06:15.740Z,26.50
2019-01-25T04:07:19.289Z,28.50
2019-01-25T04:08:22.425Z,24.00
2019-01-25T04:09:28.846Z,23.50
2019-01-25T04:10:31.886Z,28.00
2019-01-25T04:11:36.220Z,31.50
2019-01-25T04:12:39.128Z,24.50
2019-01-25T04:13:44.575Z,30.00
2019-01-25T04:14:50.350Z,24.00
2019-01-25T04:15:53.263Z,20.50
2019-01-25T04:16:56.251Z,25.00
2019-01-25T04:17:59.725Z,29.00
2019-01-25T04:19:02.660Z,21.00
2019-01-25T04:20:05.569Z,28.50
2019-01-25T04:21:08.468Z,26.00
2019-01-25T04:22:11.480Z,30.50
2019-01-25T04:23:14.439Z,33.00
2019-01-25T04:24:19.427Z,30.00
2019-01-25T04:25:22.404Z,26.00
2019-01-25T04:26:25.357Z,31.50
2019-01-25T04:27:28.343Z,28.50
2019-01-25T04:28:31.292Z,35.50
2019-01-25T04:29:34.304Z,30.00
2019-01-25T04:30:37.701Z,28.00
2019-01-25T04:31:44.529Z,25.00
2019-01-25T04:32:47.478Z,21.00
2019-01-25T04:33:50.396Z,26.50
2019-01-25T04:34:53.329Z,30.00
2019-01-25T04:35:56.283Z,22.50
2019-01-25T04:36:59.739Z,21.00
2019-01-25T04:38:02.763Z,29.00
2019-01-25T04:39:06.270Z,24.00
2019-01-25T04:40:09.203Z,22.50
2019-01-25T04:41:12.161Z,28.00
2019-01-25T04:42:15.239Z,40.00
2019-01-25T04:43:18.486Z,23.00
2019-01-25T04:44:24.368Z,33.00
2019-01-25T04:45:27.280Z,24.50
2019-01-25T04:46:30.224Z,25.00
2019-01-25T04:47:34.038Z,35.50
2019-01-25T04:48:41.338Z,20.00
2019-01-25T04:49:42.148Z,23.00
2019-01-25T04:50:45.100Z,32.00
2019-01-25T04:51:48.445Z,26.50
2019-01-25T04:52:51.461Z,28.50
2019-01-25T04:53:54.588Z,28.50
2019-01-25T04:54:57.556Z,28.00
2019-01-25T04:56:00.969Z,29.00
2019-01-25T04:57:03.923Z,21.00
2019-01-25T04:58:06.897Z,25.50
2019-01-25T04:59:09.915Z,27.00
2019-01-25T05:00:14.521Z,25.50
2019-01-25T05:01:17.563Z,24.50
2019-01-25T05:02:23.074Z,22.50
2019-01-25T05:03:25.702Z,27.00
2019-01-25T05:04:30.171Z,27.00
2019-01-25T05:05:33.069Z,28.50
2019-01-25T05:06:37.874Z,22.50
2019-01-25T05:07:42.020Z,26.00
2019-01-25T05:08:48.009Z,22.00
2019-01-25T05:09:50.883Z,23.00
2019-01-25T05:10:53.918Z,26.50
2019-01-25T05:11:56.821Z,24.50
2019-01-25T05:12:59.717Z,32.00
2019-01-25T05:14:02.679Z,28.00
2019-01-25T05:15:06.472Z,27.50
2019-01-25T05:16:10.569Z,21.50
2019-01-25T05:17:15.196Z,22.00
2019-01-25T05:18:18.574Z,20.50
2019-01-25T05:19:21.454Z,25.50
2019-01-25T05:20:24.837Z,28.00
2019-01-25T05:21:29.584Z,25.50
2019-01-25T05:22:33.042Z,28.50
2019-01-25T05:23:38.398Z,25.50
2019-01-25T05:24:41.332Z,23.00
2019-01-25T05:25:44.265Z,25.50
2019-01-25T05:26:47.193Z,31.00
2019-01-25T05:27:50.609Z,29.50
2019-01-25T05:28:53.517Z,22.50
2019-01-25T05:29:56.396Z,19.00
2019-01-25T05:30:59.351Z,26.50
2019-01-25T05:32:03.822Z,25.50
2019-01-25T05:33:06.917Z,28.50
2019-01-25T05:34:12.664Z,30.50
2019-01-25T05:35:18.132Z,30.50
2019-01-25T05:36:21.068Z,31.50
2019-01-25T05:37:23.976Z,30.00
2019-01-25T05:38:27.890Z,26.00
2019-01-25T05:39:30.767Z,25.50
2019-01-25T05:40:35.466Z,27.50
2019-01-25T05:41:40.162Z,25.50
2019-01-25T05:42:43.186Z,23.00
2019-01-25T05:43:46.078Z,21.00
2019-01-25T05:44:49.049Z,22.00
2019-01-25T05:45:53.701Z,25.00
2019-01-25T05:46:57.129Z,33.50
2019-01-25T05:48:00.025Z,32.00
2019-01-25T05:49:03.027Z,27.50
2019-01-25T05:50:05.990Z,31.50
2019-01-25T05:51:08.892Z,27.00
2019-01-25T05:52:13.357Z,24.50
2019-01-25T05:53:16.777Z,24.00
2019-01-25T05:54:19.822Z,26.50
2019-01-25T05:55:22.801Z,33.50
2019-01-25T05:56:25.718Z,30.50
2019-01-25T05:57:28.652Z,27.50
2019-01-25T05:58:31.647Z,32.00
2019-01-25T05:59:35.119Z,34.50
2019-01-25T06:00:40.433Z,23.00
2019-01-25T06:01:44.200Z,23.50
2019-01-25T06:02:47.268Z,22.00
2019-01-25T06:03:50.250Z,28.50
2019-01-25T06:04:53.299Z,37.50
2019-01-25T06:05:57.089Z,23.50
2019-01-25T06:07:00.263Z,26.50
2019-01-25T06:08:03.601Z,21.00
2019-01-25T06:09:08.544Z,31.50
2019-01-25T06:10:11.527Z,24.50
2019-01-25T06:11:15.578Z,29.00
2019-01-25T06:12:19.220Z,30.50
2019-01-25T06:13:24.765Z,27.50
2019-01-25T06:14:29.400Z,32.00
2019-01-25T06:15:32.477Z,28.00
2019-01-25T06:16:35.506Z,24.50
2019-01-25T06:17:38.472Z,28.50
2019-01-25T06:18:42.238Z,23.50
2019-01-25T06:19:45.095Z,28.50
2019-01-25T06:20:49.611Z,36.00
2019-01-25T06:21:54.199Z,39.00
2019-01-25T06:22:59.971Z,29.50
2019-01-25T06:24:02.882Z,35.00
2019-01-25T06:25:05.802Z,30.50
2019-01-25T06:26:08.796Z,24.00
2019-01-25T06:27:11.821Z,29.50
2019-01-25T06:28:17.959Z,32.50
2019-01-25T06:29:22.446Z,23.00
2019-01-25T06:43:55.264Z,41.00
2019-01-25T06:44:58.550Z,48.00
2019-01-25T06:46:01.777Z,52.00
2019-01-25T06:47:04.809Z,40.50
2019-01-25T06:48:07.763Z,42.00
2019-01-25T06:49:11.249Z,43.00
2019-01-25T06:50:14.728Z,42.50
2019-01-25T06:51:17.646Z,37.00
2019-01-25T06:52:20.736Z,30.50
2019-01-25T06:53:25.852Z,44.50
2019-01-25T06:54:28.793Z,31.50
2019-01-25T06:55:34.324Z,40.00
2019-01-25T06:56:37.271Z,31.50
2019-01-25T06:57:54.917Z,31.00
2019-01-25T06:59:31.452Z,24.50
2019-01-25T07:00:39.229Z,28.00
2019-01-25T07:01:57.887Z,27.00
2019-01-25T07:03:01.294Z,30.50
2019-01-25T07:04:05.264Z,29.50
2019-01-25T07:05:08.211Z,29.00
2019-01-25T07:06:11.728Z,38.00
2019-01-25T07:07:34.281Z,40.00
2019-01-25T07:08:39.977Z,37.50
2019-01-25T07:09:44.119Z,38.00
2019-01-25T07:10:47.001Z,31.00
2019-01-25T07:11:52.063Z,40.50
2019-01-25T07:12:56.682Z,34.50
2019-01-25T07:14:00.131Z,24.00
2019-01-25T07:15:03.199Z,33.50
2019-01-25T07:16:06.125Z,29.00
2019-01-25T07:17:09.007Z,34.00
2019-01-25T07:18:11.978Z,26.00
2019-01-25T07:19:15.445Z,31.00
2019-01-25T07:20:18.702Z,41.00
2019-01-25T07:21:26.508Z,35.50
2019-01-25T07:22:29.394Z,28.00
2019-01-25T07:23:34.547Z,45.00
2019-01-25T07:24:39.712Z,38.00
2019-01-25T07:25:46.218Z,38.50
2019-01-25T07:26:49.729Z,34.00
2019-01-25T07:27:54.775Z,39.50
2019-01-25T07:28:57.683Z,38.50
2019-01-25T07:30:00.951Z,33.50
2019-01-25T07:31:03.970Z,39.00
2019-01-25T07:32:06.979Z,37.00
2019-01-25T07:33:10.350Z,35.00
2019-01-25T07:34:13.263Z,29.00
2019-01-25T07:35:17.273Z,38.50
2019-01-25T07:36:20.335Z,31.00
2019-01-25T07:37:23.313Z,38.00
2019-01-25T07:38:26.344Z,39.00
2019-01-25T07:39:32.830Z,36.00
2019-01-25T07:40:36.920Z,35.50
2019-01-25T07:41:40.823Z,42.00
2019-01-25T07:42:43.805Z,36.00
2019-01-25T07:43:46.788Z,37.00
2019-01-25T07:44:49.706Z,32.00
2019-01-25T07:45:53.010Z,26.50
2019-01-25T07:46:55.933Z,35.50
2019-01-25T07:47:58.859Z,41.50
2019-01-25T07:49:01.828Z,41.00
2019-01-25T07:50:04.851Z,46.50
2019-01-25T07:51:07.931Z,36.00
2019-01-25T07:52:10.838Z,30.50
2019-01-25T07:53:13.739Z,48.50
2019-01-25T07:54:16.693Z,31.00
2019-01-25T07:55:19.582Z,48.00
2019-01-25T07:56:22.613Z,47.00
2019-01-25T07:57:25.960Z,37.50
2019-01-25T07:58:28.970Z,32.00
2019-01-25T07:59:33.000Z,41.00
2019-01-25T08:00:40.147Z,42.00
2019-01-25T08:01:43.188Z,42.00
2019-01-25T08:02:46.202Z,39.50
2019-01-25T08:03:49.642Z,37.50
2019-01-25T08:04:55.528Z,35.00
2019-01-25T08:05:58.628Z,48.00
2019-01-25T08:07:05.341Z,45.00
2019-01-25T08:08:08.382Z,37.00
2019-01-25T08:09:12.693Z,42.00
2019-01-25T08:10:16.108Z,43.00
2019-01-25T08:11:26.065Z,38.50
2019-01-25T08:12:29.528Z,33.00
2019-01-25T08:13:32.588Z,34.50
2019-01-25T08:14:35.561Z,42.50
2019-01-25T08:15:41.624Z,40.00
2019-01-25T08:16:45.089Z,33.50
2019-01-25T08:17:48.526Z,31.50
2019-01-25T08:18:51.520Z,31.00
2019-01-25T08:19:54.410Z,30.50
2019-01-25T08:20:57.391Z,37.00
2019-01-25T08:22:02.561Z,41.50
2019-01-25T08:23:05.849Z,42.50
2019-01-25T08:24:08.854Z,35.00
2019-01-25T08:25:14.149Z,27.50
2019-01-25T08:26:19.983Z,45.00
2019-01-25T08:27:23.222Z,35.50
2019-01-25T08:28:26.111Z,42.50
2019-01-25T08:29:31.313Z,48.00
2019-01-25T08:30:36.161Z,42.00
2019-01-25T08:31:40.448Z,49.50
2019-01-25T08:32:46.321Z,43.50
2019-01-25T08:33:49.571Z,41.50
2019-01-25T08:34:54.321Z,34.50
2019-01-25T08:35:58.974Z,35.00
2019-01-25T08:37:03.949Z,44.00
2019-01-25T08:38:06.837Z,39.50
2019-01-25T08:39:09.817Z,42.50
2019-01-25T08:40:13.663Z,36.00
2019-01-25T08:41:16.794Z,37.00
2019-01-25T08:42:20.248Z,41.50
2019-01-25T08:43:26.601Z,41.50
2019-01-25T08:44:36.255Z,37.50
2019-01-25T08:45:43.785Z,33.00
2019-01-25T08:46:46.672Z,34.50
2019-01-25T08:47:51.428Z,43.00
2019-01-25T08:49:02.984Z,51.50
2019-01-25T08:50:07.296Z,35.00
2019-01-25T08:51:12.552Z,52.00
2019-01-25T08:52:23.693Z,47.00
2019-01-25T08:53:26.681Z,42.00
2019-01-25T08:54:29.607Z,49.50
2019-01-25T08:55:34.371Z,41.50
2019-01-25T08:56:37.461Z,43.00
2019-01-25T08:57:43.606Z,34.50
2019-01-25T08:58:46.709Z,42.50
2019-01-25T08:59:49.647Z,44.50
2019-01-25T09:00:52.793Z,47.00
2019-01-25T09:01:57.423Z,55.00
2019-01-25T09:03:04.120Z,45.00
2019-01-25T09:04:09.442Z,44.50
2019-01-25T09:05:12.677Z,51.00
2019-01-25T09:06:15.738Z,57.50
2019-01-25T09:07:20.128Z,50.50
2019-01-25T09:08:23.662Z,54.50
2019-01-25T09:09:31.338Z,62.00
2019-01-25T09:10:36.931Z,39.00
2019-01-25T09:11:39.948Z,59.00
2019-01-25T09:12:43.147Z,50.00
2019-01-25T09:13:46.156Z,43.00
2019-01-25T09:14:52.321Z,52.00
2019-01-25T09:15:55.294Z,56.50
2019-01-25T09:17:00.440Z,40.00
2019-01-25T09:18:03.460Z,49.50
2019-01-25T09:19:12.702Z,54.00
2019-01-25T09:20:15.806Z,47.00
2019-01-25T09:21:28.129Z,49.00
2019-01-25T09:22:31.108Z,44.50
2019-01-25T09:23:36.306Z,45.50
2019-01-25T09:24:39.282Z,45.00
2019-01-25T09:25:42.189Z,43.50
2019-01-25T09:26:45.164Z,48.50
2019-01-25T09:27:48.401Z,63.00
2019-01-25T09:28:53.120Z,44.50
2019-01-25T09:29:56.384Z,49.00
2019-01-25T09:30:59.304Z,44.50
2019-01-25T09:32:19.856Z,44.50
2019-01-25T09:33:23.089Z,37.50
2019-01-25T09:34:26.042Z,42.50
2019-01-25T09:35:30.593Z,45.50
2019-01-25T09:36:37.811Z,50.50
2019-01-25T09:37:40.863Z,52.00
2019-01-25T09:38:59.095Z,50.00
2019-01-25T09:40:05.122Z,32.50
2019-01-25T09:41:08.609Z,43.00
2019-01-25T09:42:11.577Z,43.00
2019-01-25T09:43:14.480Z,49.50
2019-01-25T09:44:23.665Z,36.00
2019-01-25T09:45:27.005Z,35.50
2019-01-25T09:46:35.857Z,44.00
2019-01-25T09:47:41.261Z,41.50
2019-01-25T09:48:44.168Z,38.50
2019-01-25T09:49:48.968Z,47.50
2019-01-25T09:50:52.856Z,41.00
2019-01-25T09:51:58.407Z,43.50
2019-01-25T09:53:01.132Z,44.00
2019-01-25T09:54:04.695Z,48.00
2019-01-25T09:55:07.675Z,38.50
2019-01-25T09:56:12.174Z,43.50
2019-01-25T09:57:18.700Z,35.50
2019-01-25T09:58:21.982Z,40.50
2019-01-25T09:59:24.975Z,38.50
2019-01-25T10:00:29.393Z,45.00
2019-01-25T10:01:32.398Z,38.00
2019-01-25T10:02:36.370Z,38.50
2019-01-25T10:03:49.468Z,42.00
2019-01-25T10:04:53.954Z,45.00
2019-01-25T10:05:58.936Z,44.50
2019-01-25T10:07:03.354Z,42.50
2019-01-25T10:08:11.472Z,43.00
2019-01-25T10:09:14.383Z,50.50
2019-01-25T10:10:21.131Z,36.50
2019-01-25T10:11:30.229Z,42.00
2019-01-25T10:12:34.977Z,51.50
2019-01-25T10:13:37.858Z,50.00
2019-01-25T10:14:40.754Z,39.50
2019-01-25T10:15:43.674Z,36.00
2019-01-25T10:17:00.123Z,39.00
2019-01-25T10:17:54.681Z,35.50
2019-01-25T10:18:57.579Z,38.50
2019-01-25T10:20:02.078Z,47.00
2019-01-25T10:21:04.958Z,46.50
2019-01-25T10:22:08.815Z,46.00
2019-01-25T10:23:12.274Z,45.50
2019-01-25T10:24:17.979Z,43.00
2019-01-25T10:25:20.936Z,46.00
2019-01-25T10:26:23.882Z,50.00
2019-01-25T10:27:28.828Z,53.00
2019-01-25T10:28:35.489Z,47.00
2019-01-25T10:29:38.813Z,44.00
2019-01-25T10:30:42.250Z,42.50
2019-01-25T10:31:45.168Z,54.50
2019-01-25T10:32:54.125Z,46.50
2019-01-25T10:34:00.155Z,41.50
2019-01-25T10:35:03.419Z,67.50
2019-01-25T10:36:06.727Z,52.00
2019-01-25T10:37:09.696Z,45.50
2019-01-25T10:38:12.671Z,49.00
2019-01-25T10:39:18.068Z,45.50
2019-01-25T10:40:23.508Z,53.00
2019-01-25T10:41:26.464Z,59.00
2019-01-25T10:42:44.122Z,58.00
2019-01-25T10:43:50.625Z,57.00
2019-01-25T10:44:54.122Z,48.50
2019-01-25T10:45:58.387Z,54.00
2019-01-25T10:47:03.413Z,48.00
2019-01-25T10:48:06.429Z,57.00
2019-01-25T10:49:09.734Z,43.00
2019-01-25T10:50:12.740Z,58.00
2019-01-25T10:51:20.942Z,57.00
2019-01-25T10:52:25.593Z,39.00
2019-01-25T10:53:29.629Z,56.00
2019-01-25T10:54:34.321Z,51.00
2019-01-25T10:55:39.813Z,57.50
2019-01-25T10:56:45.244Z,64.50
2019-01-25T10:57:52.198Z,56.00
2019-01-25T10:58:56.736Z,49.00
2019-01-25T11:00:02.532Z,48.00
2019-01-25T11:01:08.525Z,47.50
2019-01-25T11:02:14.939Z,41.50
2019-01-25T11:03:19.021Z,50.50
2019-01-25T11:04:28.180Z,47.50
2019-01-25T11:05:35.389Z,51.00
2019-01-25T11:06:41.017Z,47.50
2019-01-25T11:07:44.073Z,58.00
2019-01-25T11:08:47.513Z,53.50
2019-01-25T11:09:51.517Z,57.00
2019-01-25T11:10:54.463Z,53.00
2019-01-25T11:11:58.483Z,47.00
2019-01-25T11:13:04.634Z,54.50
2019-01-25T11:14:07.565Z,51.50
2019-01-25T11:15:13.281Z,52.50
2019-01-25T11:16:16.329Z,47.00
2019-01-25T11:17:20.882Z,51.00
2019-01-25T11:18:29.003Z,54.00
2019-01-25T11:19:34.789Z,50.00
2019-01-25T11:20:38.328Z,51.50
2019-01-25T11:21:45.288Z,50.00
2019-01-25T11:22:51.431Z,64.50
2019-01-25T11:24:02.772Z,57.00
2019-01-25T11:25:05.754Z,50.50
2019-01-25T11:26:08.820Z,59.50
2019-01-25T11:27:11.755Z,54.50
2019-01-25T11:28:14.996Z,65.50
2019-01-25T11:29:21.315Z,54.00
2019-01-25T11:42:51.291Z,67.00
2019-01-25T11:43:58.102Z,62.75
2019-01-25T11:45:01.196Z,55.00
2019-01-25T11:46:07.286Z,55.00
2019-01-25T11:47:10.447Z,61.00
2019-01-25T11:48:13.949Z,62.00
2019-01-25T11:49:17.333Z,73.50
2019-01-25T11:50:20.986Z,64.50
2019-01-25T11:51:28.305Z,64.00
2019-01-25T11:52:32.060Z,54.00
2019-01-25T11:53:37.090Z,58.50
2019-01-25T11:54:45.069Z,56.50
2019-01-25T11:55:48.181Z,59.00
2019-01-25T11:56:53.394Z,56.00
2019-01-25T11:58:00.426Z,60.50
2019-01-25T11:59:22.093Z,64.50
2019-01-25T12:00:29.625Z,50.00
2019-01-25T12:01:36.708Z,56.00
2019-01-25T12:02:43.975Z,50.00
2019-01-25T12:03:46.844Z,59.00
2019-01-25T12:04:50.183Z,43.00
2019-01-25T12:05:57.299Z,52.50
2019-01-25T12:07:01.234Z,57.50
2019-01-25T12:08:04.260Z,56.50
2019-01-25T12:09:11.897Z,49.50
2019-01-25T12:10:16.664Z,46.50
2019-01-25T12:11:23.502Z,52.00
2019-01-25T12:12:29.495Z,54.00
2019-01-25T12:13:38.144Z,47.00
2019-01-25T12:14:42.503Z,58.50
2019-01-25T12:15:46.153Z,56.50
2019-01-25T12:16:50.205Z,61.50
2019-01-25T12:17:58.738Z,61.50
2019-01-25T12:19:05.095Z,61.00
2019-01-25T12:20:07.733Z,53.00
2019-01-25T12:21:12.585Z,60.50
2019-01-25T12:22:19.185Z,58.00
2019-01-25T12:23:31.644Z,62.00
2019-01-25T12:24:35.662Z,73.00
2019-01-25T12:25:42.222Z,64.50
2019-01-25T12:26:49.914Z,66.00
2019-01-25T12:27:57.744Z,48.50
2019-01-25T12:29:01.121Z,62.50
2019-01-25T12:30:04.576Z,57.00
2019-01-25T12:31:07.556Z,50.50
2019-01-25T12:32:12.059Z,52.00
2019-01-25T12:33:21.902Z,42.50
2019-01-25T12:34:24.803Z,54.50
2019-01-25T12:35:27.840Z,51.00
2019-01-25T12:36:31.233Z,53.50
2019-01-25T12:37:34.517Z,50.50
2019-01-25T12:38:38.024Z,65.00
2019-01-25T12:39:42.705Z,58.00
2019-01-25T12:40:45.624Z,72.50
2019-01-25T12:41:51.407Z,59.50
2019-01-25T12:43:02.098Z,50.50
2019-01-25T12:44:05.140Z,61.50
2019-01-25T12:45:10.599Z,67.00
2019-01-25T12:46:13.603Z,60.00
2019-01-25T12:47:16.518Z,67.00
2019-01-25T12:48:19.572Z,64.00
2019-01-25T12:49:22.486Z,63.50
2019-01-25T12:50:25.481Z,68.50
2019-01-25T12:51:28.479Z,59.00
2019-01-25T12:52:31.962Z,73.50
2019-01-25T12:53:34.994Z,67.00
2019-01-25T12:54:40.861Z,63.50
2019-01-25T12:55:44.683Z,60.00
2019-01-25T12:56:50.444Z,63.00
2019-01-25T12:57:55.989Z,81.00
2019-01-25T12:58:59.388Z,53.50
2019-01-25T13:00:02.409Z,61.50
2019-01-25T13:01:07.027Z,71.00
2019-01-25T13:02:12.297Z,60.00
2019-01-25T13:03:15.181Z,62.50
2019-01-25T13:04:18.238Z,73.00
2019-01-25T13:05:21.647Z,64.50
2019-01-25T13:06:24.976Z,61.00
2019-01-25T13:07:28.339Z,70.50
2019-01-25T13:08:31.672Z,82.50
2019-01-25T13:09:37.776Z,68.50
2019-01-25T13:10:41.915Z,63.50
2019-01-25T13:11:44.830Z,80.00
2019-01-25T13:12:55.235Z,64.50
2019-01-25T13:13:58.408Z,65.00
2019-01-25T13:15:04.841Z,65.00
2019-01-25T13:16:07.817Z,65.00
2019-01-25T13:17:13.322Z,64.50
2019-01-25T13:18:16.297Z,67.00
2019-01-25T13:19:25.365Z,66.00
2019-01-25T13:20:39.535Z,64.00
2019-01-25T13:21:40.741Z,54.00
2019-01-25T13:22:43.730Z,65.50
2019-01-25T13:23:49.537Z,58.50
2019-01-25T13:25:00.265Z,58.00
2019-01-25T13:26:08.020Z,70.00
2019-01-25T13:27:15.376Z,56.00
2019-01-25T13:28:21.794Z,55.00
2019-01-25T13:29:26.591Z,73.50
2019-01-25T13:30:31.414Z,63.50
2019-01-25T13:31:43.959Z,79.00
2019-01-25T13:32:49.741Z,72.00
2019-01-25T13:33:53.193Z,56.50
2019-01-25T13:35:02.837Z,63.00
2019-01-25T13:36:12.097Z,63.50
2019-01-25T13:37:15.350Z,64.50
2019-01-25T13:38:20.756Z,61.50
2019-01-25T13:39:25.259Z,55.50
2019-01-25T13:40:29.918Z,55.00
2019-01-25T13:41:33.359Z,64.50
2019-01-25T13:42:36.520Z,63.00
2019-01-25T13:43:48.678Z,57.00
2019-01-25T13:44:51.876Z,55.00
2019-01-25T13:45:54.891Z,78.50
2019-01-25T13:46:58.258Z,57.00
2019-01-25T13:48:04.434Z,70.50
2019-01-25T13:49:07.377Z,59.00
2019-01-25T13:50:10.537Z,45.00
2019-01-25T13:51:13.542Z,54.00
2019-01-25T13:52:16.500Z,62.50
2019-01-25T13:53:23.754Z,65.00
2019-01-25T13:54:28.851Z,55.00
2019-01-25T13:55:33.848Z,59.50
2019-01-25T13:56:36.842Z,66.50
2019-01-25T13:57:42.866Z,59.00
2019-01-25T13:58:47.929Z,56.00
2019-01-25T13:59:53.554Z,58.00
2019-01-25T14:00:56.467Z,63.00
2019-01-25T14:01:59.667Z,50.00
2019-01-25T14:03:04.173Z,75.00
2019-01-25T14:04:07.148Z,65.50
2019-01-25T14:05:11.394Z,65.50
2019-01-25T14:06:15.255Z,60.50
2019-01-25T14:07:21.241Z,66.00
2019-01-25T14:08:26.200Z,59.00
2019-01-25T14:09:32.579Z,55.50
2019-01-25T14:10:35.649Z,62.00
2019-01-25T14:11:44.674Z,57.00
2019-01-25T14:12:50.993Z,66.50
2019-01-25T14:13:54.302Z,55.50
2019-01-25T14:14:57.376Z,70.00